Brownsville, Texas
Current Conditions -  °F | °C
As of 3:53 AM on Sunday 21 Dec 2014 (Local Time) from KBRO Reporting Station
Overcast Overcast  
Wind Chill: 58°   Ceiling: 5000
Heat Index: 58°   Visibility: 9mi
Dew Point: 55°   Wind: 7mph
Humidity: 90%   Direction: 330°NNW
Pressure: 30.06"   Gusts: NA
Location:  25.9°N, 97.49°W
Report Text: KBRO 210953Z 33006KT 9SM OVC050 14/13 A3006 RMK AO2 SLP178 T01440128
Loading
Personal Weather Stations






























Interactive Weather Map New forecast layout! Learn more

10-Day Weather Forecast

Advertisements
Track Severe Weather on mobile